Time;durP1;ratioP1;P1;durP2;ratioP2;P2;SDS_P1;SDS_P2;PMS_P1;PMS_P2;Temp;Humidity;BMP_temperature;BMP_pressure;BME280_temperature;BME280_humidity;BME280_pressure;Samples;Min_cycle;Max_cycle;Signal;HPM_P1;HPM_P2
2022/11/05 00:10:27;;;;;;;25.43;14.43;;;;;;;;;;5056985;28;20185;-69
2022/11/05 00:18:23;;;;;;;20.03;13.80;;;;;;;;;;5056956;28;20174;-69
2022/11/05 00:20:49;;;;;;;18.63;14.33;;;;;;;;;;5056405;28;20192;-69
2022/11/05 00:26:01;;;;;;;19.60;14.40;;;;;;;;;;5056213;28;20193;-69
2022/11/05 00:28:27;;;;;;;22.00;14.27;;;;;;;;;;5054872;28;20210;-69
2022/11/05 00:30:54;;;;;;;20.23;14.93;;;;;;;;;;5056482;28;20206;-70
2022/11/05 00:33:20;;;;;;;21.07;14.03;;;;;;;;;;5056433;28;20174;-69
2022/11/05 00:35:46;;;;;;;22.10;15.47;;;;;;;;;;5054785;28;20321;-69
2022/11/05 00:38:12;;;;;;;18.57;14.87;;;;;;;;;;5054809;28;20674;-70
2022/11/05 00:40:38;;;;;;;23.37;14.97;;;;;;;;;;5054650;28;20205;-69
2022/11/05 00:45:48;;;;;;;20.80;15.23;;;;;;;;;;5056334;28;20209;-69
2022/11/05 00:50:59;;;;;;;21.13;15.30;;;;;;;;;;5056070;28;20650;-69
2022/11/05 00:53:25;;;;;;;22.13;15.93;;;;;;;;;;5055716;28;20170;-70
2022/11/05 00:55:51;;;;;;;20.37;15.37;;;;;;;;;;5054280;28;20202;-70
2022/11/05 00:58:20;;;;;;;19.70;15.37;;;;;;;;;;5054423;28;20190;-70
2022/11/05 01:00:50;;;;;;;20.83;15.87;;;;;;;;;;5055605;28;20183;-70
2022/11/05 01:03:18;;;;;;;21.00;15.47;;;;;;;;;;5055533;28;20175;-70
2022/11/05 01:05:45;;;;;;;19.70;15.20;;;;;;;;;;5055316;28;20214;-70
2022/11/05 01:08:11;;;;;;;19.50;15.43;;;;;;;;;;5054153;28;20448;-70
2022/11/05 01:10:41;;;;;;;23.57;16.33;;;;;;;;;;5055620;28;20183;-70
2022/11/05 01:13:07;;;;;;;23.20;15.47;;;;;;;;;;5055410;28;20573;-71
2022/11/05 01:15:34;;;;;;;20.90;15.17;;;;;;;;;;5055289;28;20248;-70
2022/11/05 01:18:00;;;;;;;20.93;15.57;;;;;;;;;;5055271;28;20186;-70
2022/11/05 01:20:26;;;;;;;22.87;15.87;;;;;;;;;;5053941;28;20221;-70
2022/11/05 01:22:52;;;;;;;19.63;15.17;;;;;;;;;;5055131;28;20175;-70
2022/11/05 01:25:18;;;;;;;21.00;15.63;;;;;;;;;;5055078;28;20205;-70
2022/11/05 01:27:44;;;;;;;17.13;14.93;;;;;;;;;;5055267;28;20232;-72
2022/11/05 01:30:10;;;;;;;26.97;16.33;;;;;;;;;;5055033;28;20182;-70
2022/11/05 01:32:37;;;;;;;22.67;17.83;;;;;;;;;;5055157;28;20202;-70
2022/11/05 01:35:04;;;;;;;22.77;17.23;;;;;;;;;;5053815;28;20236;-69
2022/11/05 01:37:29;;;;;;;23.93;17.17;;;;;;;;;;5053978;28;20669;-70
2022/11/05 01:39:55;;;;;;;22.13;17.93;;;;;;;;;;5055287;28;20175;-70
2022/11/05 01:42:23;;;;;;;24.17;18.23;;;;;;;;;;5053956;28;20189;-70
2022/11/05 01:44:52;;;;;;;26.23;17.33;;;;;;;;;;5055771;28;20745;-70
2022/11/05 01:47:41;;;;;;;22.63;17.60;;;;;;;;;;5054532;28;20189;-70
2022/11/05 01:50:13;;;;;;;25.47;17.47;;;;;;;;;;5055751;28;20548;-70
2022/11/05 01:52:38;;;;;;;22.27;17.93;;;;;;;;;;5055036;28;20630;-70
2022/11/05 01:55:05;;;;;;;24.50;17.97;;;;;;;;;;5053008;28;20203;-70
2022/11/05 01:57:31;;;;;;;27.50;18.57;;;;;;;;;;5053382;28;20187;-70
2022/11/05 01:59:59;;;;;;;22.43;17.47;;;;;;;;;;5053286;28;20183;-71
2022/11/05 02:02:25;;;;;;;22.70;17.10;;;;;;;;;;5054656;28;20643;-70
2022/11/05 02:04:52;;;;;;;21.30;17.40;;;;;;;;;;5052793;28;20253;-70
2022/11/05 02:07:19;;;;;;;24.73;17.90;;;;;;;;;;5054173;28;20261;-70
2022/11/05 02:09:58;;;;;;;28.60;19.03;;;;;;;;;;5053098;28;20202;-70
2022/11/05 02:12:24;;;;;;;26.80;19.03;;;;;;;;;;5052912;28;20180;-70
2022/11/05 02:14:50;;;;;;;23.43;19.37;;;;;;;;;;5054440;28;20260;-70
2022/11/05 02:17:32;;;;;;;26.60;19.87;;;;;;;;;;5052898;28;20631;-70
2022/11/05 02:19:58;;;;;;;28.23;19.73;;;;;;;;;;5054153;28;20189;-70
2022/11/05 02:22:40;;;;;;;21.97;19.50;;;;;;;;;;5054051;28;20171;-72
2022/11/05 02:25:24;;;;;;;26.77;19.07;;;;;;;;;;5054354;28;20194;-70
2022/11/05 02:28:09;;;;;;;29.30;19.37;;;;;;;;;;5054123;28;20205;-70
2022/11/05 02:30:50;;;;;;;27.53;19.47;;;;;;;;;;5053727;28;20174;-71
2022/11/05 02:33:16;;;;;;;26.47;20.63;;;;;;;;;;5052853;28;20720;-70
2022/11/05 02:35:48;;;;;;;72.53;37.33;;;;;;;;;;5052567;28;20203;-70
2022/11/05 02:38:31;;;;;;;55.70;28.07;;;;;;;;;;5054483;28;20577;-70
2022/11/05 02:41:03;;;;;;;36.17;24.10;;;;;;;;;;5054154;28;20198;-70
2022/11/05 02:43:47;;;;;;;39.40;26.70;;;;;;;;;;5053985;28;20173;-70
2022/11/05 02:46:20;;;;;;;41.60;27.63;;;;;;;;;;5052626;28;20190;-70
2022/11/05 02:48:46;;;;;;;42.70;27.33;;;;;;;;;;5054563;28;20200;-70
2022/11/05 02:51:22;;;;;;;41.33;26.77;;;;;;;;;;5052667;28;20666;-70
2022/11/05 02:53:54;;;;;;;39.40;27.03;;;;;;;;;;5053871;28;20174;-70
2022/11/05 02:56:22;;;;;;;43.67;28.57;;;;;;;;;;5052568;28;20189;-70
2022/11/05 02:58:48;;;;;;;38.77;27.23;;;;;;;;;;5053601;28;20178;-70
2022/11/05 03:01:14;;;;;;;38.53;26.10;;;;;;;;;;5058218;28;20686;-70
2022/11/05 03:03:42;;;;;;;33.17;23.87;;;;;;;;;;5056670;28;20530;-70
2022/11/05 03:06:27;;;;;;;30.07;24.50;;;;;;;;;;5057158;28;20186;-70
2022/11/05 03:08:56;;;;;;;32.40;24.53;;;;;;;;;;5056469;28;20186;-70
2022/11/05 03:11:25;;;;;;;38.30;29.03;;;;;;;;;;5054039;28;20174;-70
2022/11/05 03:13:51;;;;;;;36.00;25.13;;;;;;;;;;5054021;28;20667;-70
2022/11/05 03:16:39;;;;;;;32.80;25.43;;;;;;;;;;5053957;28;20271;-70
2022/11/05 03:19:08;;;;;;;33.77;24.10;;;;;;;;;;5055488;28;20567;-70
2022/11/05 03:21:43;;;;;;;28.83;24.07;;;;;;;;;;5053741;28;20269;-70
2022/11/05 03:24:21;;;;;;;28.67;22.87;;;;;;;;;;5053724;28;20197;-71
2022/11/05 03:26:56;;;;;;;37.60;28.23;;;;;;;;;;5052224;28;20178;-70
2022/11/05 03:29:23;;;;;;;32.83;25.70;;;;;;;;;;5053416;28;20202;-71
2022/11/05 03:31:51;;;;;;;27.57;23.03;;;;;;;;;;5051885;28;20662;-70
2022/11/05 03:34:18;;;;;;;30.30;22.13;;;;;;;;;;5051728;28;20202;-71
2022/11/05 03:36:50;;;;;;;27.50;23.10;;;;;;;;;;5053051;28;20551;-72
2022/11/05 03:39:22;;;;;;;29.13;23.00;;;;;;;;;;5051853;28;20186;-70
2022/11/05 03:41:50;;;;;;;36.03;23.13;;;;;;;;;;5053299;28;20179;-70
2022/11/05 03:44:18;;;;;;;36.13;23.50;;;;;;;;;;5052283;28;20205;-70
2022/11/05 03:46:48;;;;;;;29.80;23.87;;;;;;;;;;5051815;28;20190;-71
2022/11/05 03:49:17;;;;;;;26.17;22.33;;;;;;;;;;5053289;28;20198;-70
2022/11/05 03:52:01;;;;;;;30.83;23.47;;;;;;;;;;5051672;28;20183;-71
2022/11/05 03:54:27;;;;;;;30.30;22.93;;;;;;;;;;5052868;28;20213;-71
2022/11/05 03:57:09;;;;;;;29.57;22.87;;;;;;;;;;5052948;28;20179;-70
2022/11/05 03:59:40;;;;;;;28.07;23.47;;;;;;;;;;5051581;28;20647;-71
2022/11/05 04:02:06;;;;;;;28.03;23.23;;;;;;;;;;5052928;28;20232;-71
2022/11/05 04:04:32;;;;;;;28.77;22.13;;;;;;;;;;5051287;28;20226;-71
2022/11/05 04:15:11;;;;;;;32.43;22.70;;;;;;;;;;5052903;28;20221;-70
2022/11/05 04:17:37;;;;;;;34.77;22.70;;;;;;;;;;5053915;28;20183;-71
2022/11/05 04:25:33;;;;;;;26.93;20.33;;;;;;;;;;5056420;28;20213;-70
2022/11/05 04:27:59;;;;;;;29.13;20.80;;;;;;;;;;5055108;28;20206;-70
2022/11/05 04:30:25;;;;;;;22.10;19.77;;;;;;;;;;5054991;28;20174;-71
2022/11/05 04:32:57;;;;;;;25.30;20.27;;;;;;;;;;5056388;28;20647;-71
2022/11/05 04:35:24;;;;;;;23.83;20.63;;;;;;;;;;5054800;28;20199;-70
2022/11/05 04:37:50;;;;;;;21.37;18.37;;;;;;;;;;5054829;28;20186;-71
2022/11/05 04:40:16;;;;;;;24.30;19.33;;;;;;;;;;5055993;28;20262;-70
2022/11/05 04:42:42;;;;;;;25.77;19.53;;;;;;;;;;5056254;28;20206;-70
2022/11/05 04:45:08;;;;;;;33.10;22.83;;;;;;;;;;5054587;28;20259;-70
2022/11/05 04:47:33;;;;;;;29.73;20.53;;;;;;;;;;5055808;28;20707;-70
2022/11/05 04:49:59;;;;;;;25.27;20.27;;;;;;;;;;5056100;28;20178;-70
2022/11/05 04:52:25;;;;;;;25.10;20.03;;;;;;;;;;5054566;28;20181;-70
2022/11/05 04:54:51;;;;;;;27.77;21.60;;;;;;;;;;5055955;28;20203;-70
2022/11/05 04:57:17;;;;;;;28.67;21.63;;;;;;;;;;5054571;28;20178;-71
2022/11/05 04:59:43;;;;;;;26.87;21.43;;;;;;;;;;5055627;28;20181;-70
2022/11/05 05:02:09;;;;;;;24.57;20.27;;;;;;;;;;5054543;28;20269;-70
2022/11/05 05:04:35;;;;;;;27.03;20.60;;;;;;;;;;5054056;28;20268;-70
2022/11/05 05:07:01;;;;;;;24.57;19.43;;;;;;;;;;5056050;28;20178;-70
2022/11/05 05:09:27;;;;;;;27.90;20.40;;;;;;;;;;5054217;28;20202;-70
2022/11/05 05:11:53;;;;;;;27.63;20.17;;;;;;;;;;5055384;28;20498;-70
2022/11/05 05:14:19;;;;;;;26.90;22.13;;;;;;;;;;5055316;28;20682;-72
2022/11/05 05:16:45;;;;;;;26.67;20.60;;;;;;;;;;5054025;28;20269;-70
2022/11/05 05:19:11;;;;;;;28.03;22.23;;;;;;;;;;5055300;28;20217;-71
2022/11/05 05:21:40;;;;;;;31.20;22.53;;;;;;;;;;5053900;28;20692;-69
2022/11/05 05:24:13;;;;;;;32.07;25.00;;;;;;;;;;5055127;28;20194;-70
2022/11/05 05:26:42;;;;;;;32.13;24.57;;;;;;;;;;5053901;28;20189;-70
2022/11/05 05:29:08;;;;;;;30.30;23.30;;;;;;;;;;5054276;28;20194;-70
2022/11/05 05:31:34;;;;;;;31.90;24.27;;;;;;;;;;5055053;28;20175;-70
2022/11/05 05:34:00;;;;;;;35.60;25.17;;;;;;;;;;5054880;28;20190;-71
2022/11/05 05:36:26;;;;;;;36.00;26.00;;;;;;;;;;5055132;28;20257;-70
2022/11/05 05:38:52;;;;;;;35.30;27.43;;;;;;;;;;5055280;28;20777;-70
2022/11/05 05:41:19;;;;;;;36.57;25.37;;;;;;;;;;5054823;28;20587;-70
2022/11/05 05:43:45;;;;;;;34.43;25.67;;;;;;;;;;5053502;28;20214;-70
2022/11/05 05:46:12;;;;;;;37.73;28.53;;;;;;;;;;5053630;28;20267;-71
2022/11/05 05:48:38;;;;;;;41.07;29.30;;;;;;;;;;5054620;28;20209;-70
2022/11/05 05:51:05;;;;;;;41.07;29.63;;;;;;;;;;5054646;28;20551;-71
2022/11/05 05:53:31;;;;;;;43.37;31.70;;;;;;;;;;5055230;28;20178;-70
2022/11/05 05:55:57;;;;;;;37.73;31.13;;;;;;;;;;5053215;28;20194;-71
2022/11/05 05:58:25;;;;;;;44.77;31.57;;;;;;;;;;5053208;28;20609;-70
2022/11/05 06:00:52;;;;;;;43.60;31.60;;;;;;;;;;5054817;28;20247;-70
2022/11/05 06:03:18;;;;;;;41.37;31.57;;;;;;;;;;5053207;28;20532;-70
2022/11/05 06:05:44;;;;;;;45.80;32.33;;;;;;;;;;5052893;28;20217;-72
2022/11/05 06:08:10;;;;;;;45.53;32.70;;;;;;;;;;5054176;28;20206;-70
2022/11/05 06:10:36;;;;;;;47.10;32.43;;;;;;;;;;5052988;28;20182;-70
2022/11/05 06:13:02;;;;;;;46.33;33.53;;;;;;;;;;5054295;28;20214;-70
2022/11/05 06:15:28;;;;;;;54.30;35.23;;;;;;;;;;5052896;28;20256;-71
2022/11/05 06:17:54;;;;;;;55.13;36.13;;;;;;;;;;5052816;28;20193;-71
2022/11/05 06:20:21;;;;;;;51.43;36.47;;;;;;;;;;5054424;28;20179;-70
2022/11/05 06:22:56;;;;;;;54.87;37.07;;;;;;;;;;5054118;28;20658;-71
2022/11/05 06:25:23;;;;;;;55.47;38.27;;;;;;;;;;5052773;28;20619;-70
2022/11/05 06:27:49;;;;;;;53.70;38.03;;;;;;;;;;5080742;22;20226;-69
2022/11/05 06:30:16;;;;;;;66.67;41.33;;;;;;;;;;5056532;28;20175;-69
2022/11/05 06:32:42;;;;;;;57.13;38.43;;;;;;;;;;5060587;28;20240;-70
2022/11/05 06:35:08;;;;;;;61.27;40.73;;;;;;;;;;5047939;28;20179;-68
2022/11/05 06:37:34;;;;;;;63.47;41.83;;;;;;;;;;5067065;28;20202;-69
2022/11/05 06:40:00;;;;;;;56.73;41.43;;;;;;;;;;5065995;28;20178;-69
2022/11/05 06:42:26;;;;;;;56.07;39.90;;;;;;;;;;5066092;28;20175;-70
2022/11/05 06:44:52;;;;;;;56.40;40.83;;;;;;;;;;5058361;28;20210;-69
2022/11/05 06:47:18;;;;;;;57.63;40.80;;;;;;;;;;5057098;28;20194;-69
2022/11/05 06:49:45;;;;;;;56.67;39.37;;;;;;;;;;5056364;28;20178;-69
2022/11/05 06:52:11;;;;;;;60.13;41.77;;;;;;;;;;5056390;28;20205;-69
2022/11/05 06:54:37;;;;;;;59.33;40.97;;;;;;;;;;5037722;28;20186;-69
2022/11/05 06:57:03;;;;;;;61.70;40.70;;;;;;;;;;5037424;28;20198;-70
2022/11/05 06:59:29;;;;;;;55.23;40.00;;;;;;;;;;5055705;28;20186;-69
2022/11/05 07:01:55;;;;;;;53.40;38.97;;;;;;;;;;5055128;28;20645;-69
2022/11/05 07:04:21;;;;;;;52.57;39.50;;;;;;;;;;5054974;28;20179;-69
2022/11/05 07:06:47;;;;;;;51.53;38.80;;;;;;;;;;5036846;28;20804;-69
2022/11/05 07:09:13;;;;;;;53.13;39.13;;;;;;;;;;5055288;28;20358;-70
2022/11/05 07:11:39;;;;;;;49.90;36.70;;;;;;;;;;5054636;28;20174;-69
2022/11/05 07:14:05;;;;;;;49.87;36.33;;;;;;;;;;5054943;28;20258;-68
2022/11/05 07:16:31;;;;;;;54.27;38.57;;;;;;;;;;5055242;28;20692;-69
2022/11/05 07:18:57;;;;;;;50.00;36.23;;;;;;;;;;5054642;28;20189;-69
2022/11/05 07:21:23;;;;;;;53.50;36.37;;;;;;;;;;5054632;28;20559;-69
2022/11/05 07:23:49;;;;;;;55.23;37.20;;;;;;;;;;5054557;28;20182;-68
2022/11/05 07:26:15;;;;;;;51.10;38.23;;;;;;;;;;5054053;28;20206;-69
2022/11/05 07:28:41;;;;;;;61.30;39.73;;;;;;;;;;5054170;28;20198;-68
2022/11/05 07:31:06;;;;;;;53.10;37.57;;;;;;;;;;5054347;28;20175;-69
2022/11/05 07:33:32;;;;;;;56.23;38.37;;;;;;;;;;5054433;28;20232;-69
2022/11/05 07:35:58;;;;;;;55.37;38.37;;;;;;;;;;5053941;28;20178;-69
2022/11/05 07:38:24;;;;;;;51.77;37.27;;;;;;;;;;5036393;28;20275;-68
2022/11/05 07:40:50;;;;;;;55.37;37.17;;;;;;;;;;5036424;28;20273;-69
2022/11/05 07:43:16;;;;;;;53.10;38.30;;;;;;;;;;5054498;28;20213;-69
2022/11/05 07:45:45;;;;;;;50.90;36.87;;;;;;;;;;5036735;28;20554;-69
2022/11/05 07:48:11;;;;;;;49.50;37.17;;;;;;;;;;5054290;28;20236;-68
2022/11/05 07:50:37;;;;;;;59.83;39.53;;;;;;;;;;5036521;28;20182;-70
2022/11/05 07:53:05;;;;;;;48.90;35.10;;;;;;;;;;5039690;28;20186;-69
2022/11/05 07:55:31;;;;;;;53.57;35.93;;;;;;;;;;5058301;28;20654;-69
2022/11/05 07:57:57;;;;;;;50.47;35.77;;;;;;;;;;5040195;28;20194;-68
2022/11/05 08:00:24;;;;;;;50.77;35.80;;;;;;;;;;5058286;28;20206;-69
2022/11/05 08:03:16;;;;;;;46.83;33.23;;;;;;;;;;5058273;28;20182;-70
2022/11/05 08:05:43;;;;;;;47.60;31.47;;;;;;;;;;5053704;28;20191;-69
2022/11/05 08:08:10;;;;;;;47.07;31.57;;;;;;;;;;5039970;28;20212;-69
2022/11/05 08:10:36;;;;;;;44.40;31.30;;;;;;;;;;5058424;28;20185;-69
2022/11/05 08:13:02;;;;;;;40.67;29.97;;;;;;;;;;5057764;28;20262;-69
2022/11/05 08:15:28;;;;;;;40.00;29.40;;;;;;;;;;5057857;28;20257;-69
2022/11/05 08:18:02;;;;;;;40.67;28.20;;;;;;;;;;5039658;28;20264;-69
2022/11/05 08:20:28;;;;;;;45.53;28.13;;;;;;;;;;5040086;28;20193;-68
2022/11/05 08:22:54;;;;;;;34.43;27.97;;;;;;;;;;5058304;28;20205;-69
2022/11/05 08:25:20;;;;;;;38.23;27.97;;;;;;;;;;5056997;28;20189;-69
2022/11/05 08:27:46;;;;;;;33.03;25.40;;;;;;;;;;5056459;28;20579;-69
2022/11/05 08:30:12;;;;;;;30.63;24.00;;;;;;;;;;5057394;28;20176;-69
2022/11/05 08:32:38;;;;;;;34.97;24.03;;;;;;;;;;5057189;28;20253;-69
2022/11/05 08:35:04;;;;;;;31.37;23.23;;;;;;;;;;5056708;28;20213;-68
2022/11/05 08:37:30;;;;;;;29.60;22.93;;;;;;;;;;5039438;28;20642;-69
2022/11/05 08:39:56;;;;;;;33.77;22.30;;;;;;;;;;5056883;28;20175;-68
2022/11/05 08:42:22;;;;;;;29.33;20.67;;;;;;;;;;5056990;28;20178;-69
2022/11/05 08:44:48;;;;;;;28.60;20.07;;;;;;;;;;5039267;28;20178;-69
2022/11/05 08:47:14;;;;;;;25.97;20.20;;;;;;;;;;5057886;28;20285;-69
2022/11/05 08:49:40;;;;;;;45.80;20.23;;;;;;;;;;5038612;28;20205;-69
2022/11/05 08:52:06;;;;;;;22.83;18.40;;;;;;;;;;5056770;28;20178;-68
2022/11/05 08:54:32;;;;;;;21.10;18.77;;;;;;;;;;5038879;28;20706;-69
2022/11/05 08:56:57;;;;;;;25.10;17.33;;;;;;;;;;5057223;28;20194;-69
2022/11/05 08:59:23;;;;;;;20.50;16.37;;;;;;;;;;5056359;28;20654;-69
2022/11/05 09:01:49;;;;;;;28.33;17.40;;;;;;;;;;5056148;28;20182;-69
2022/11/05 09:04:15;;;;;;;21.43;14.90;;;;;;;;;;5056245;28;20178;-68
2022/11/05 09:06:41;;;;;;;20.80;14.50;;;;;;;;;;5057784;28;20241;-69
2022/11/05 09:09:07;;;;;;;21.17;14.80;;;;;;;;;;5059316;28;20232;-69
2022/11/05 09:11:33;;;;;;;16.77;13.40;;;;;;;;;;5041548;28;20178;-69
2022/11/05 09:13:59;;;;;;;17.73;13.33;;;;;;;;;;5040246;28;20174;-69
2022/11/05 09:16:26;;;;;;;15.80;12.93;;;;;;;;;;5057101;28;20211;-68
2022/11/05 09:18:52;;;;;;;17.20;12.60;;;;;;;;;;5063071;28;20239;-68
2022/11/05 09:21:18;;;;;;;18.37;11.40;;;;;;;;;;5064353;28;20238;-68
2022/11/05 09:23:45;;;;;;;16.53;11.37;;;;;;;;;;5050291;28;20561;-69
2022/11/05 09:26:11;;;;;;;14.30;10.10;;;;;;;;;;5066030;28;20236;-69
2022/11/05 09:28:38;;;;;;;12.93;9.10;;;;;;;;;;5045592;28;20260;-69
2022/11/05 09:31:07;;;;;;;13.87;9.47;;;;;;;;;;5060723;28;20261;-69
2022/11/05 09:33:33;;;;;;;14.03;8.33;;;;;;;;;;5058377;28;20174;-68
2022/11/05 09:36:00;;;;;;;14.30;9.60;;;;;;;;;;5055756;28;20174;-68
2022/11/05 09:38:26;;;;;;;11.37;8.27;;;;;;;;;;5055397;28;20205;-68
2022/11/05 09:41:00;;;;;;;13.33;8.20;;;;;;;;;;5056173;28;20269;-69
2022/11/05 09:43:49;;;;;;;12.93;8.50;;;;;;;;;;5038478;28;20181;-69
2022/11/05 09:46:21;;;;;;;11.80;8.23;;;;;;;;;;5048340;28;20287;-69
2022/11/05 09:48:48;;;;;;;15.00;9.17;;;;;;;;;;5070922;28;20255;-69
2022/11/05 09:51:15;;;;;;;15.23;9.93;;;;;;;;;;5067476;28;20534;-69
2022/11/05 09:53:43;;;;;;;13.77;8.73;;;;;;;;;;5050154;28;20201;-69
2022/11/05 09:56:17;;;;;;;11.10;8.07;;;;;;;;;;5068351;28;20175;-68
2022/11/05 09:58:46;;;;;;;16.03;9.17;;;;;;;;;;5063057;28;20170;-68
2022/11/05 10:01:17;;;;;;;16.20;9.13;;;;;;;;;;5057037;28;20183;-68
2022/11/05 10:03:45;;;;;;;10.63;7.90;;;;;;;;;;5056366;28;20179;-69
2022/11/05 10:06:14;;;;;;;12.07;8.53;;;;;;;;;;5056328;28;20183;-69
2022/11/05 10:08:42;;;;;;;13.40;8.17;;;;;;;;;;5056483;28;20202;-70
2022/11/05 10:11:11;;;;;;;16.60;8.70;;;;;;;;;;5056764;28;20174;-69
2022/11/05 10:13:41;;;;;;;12.53;7.60;;;;;;;;;;5056438;28;20179;-69
2022/11/05 10:16:21;;;;;;;13.00;7.50;;;;;;;;;;5055513;28;20174;-69
2022/11/05 10:18:50;;;;;;;14.70;7.80;;;;;;;;;;5040944;28;20174;-71
2022/11/05 10:21:17;;;;;;;12.00;7.10;;;;;;;;;;5057585;28;20239;-69
2022/11/05 10:23:44;;;;;;;8.43;5.70;;;;;;;;;;5039664;28;20662;-69
2022/11/05 10:26:13;;;;;;;12.63;6.30;;;;;;;;;;5042717;28;20256;-68
2022/11/05 10:28:39;;;;;;;12.70;6.83;;;;;;;;;;5041784;28;20584;-69
2022/11/05 10:31:08;;;;;;;10.47;5.90;;;;;;;;;;5042522;28;20209;-68
2022/11/05 10:33:43;;;;;;;9.13;5.50;;;;;;;;;;5060220;28;20178;-70
2022/11/05 10:36:10;;;;;;;9.70;6.50;;;;;;;;;;5059264;28;20253;-68
2022/11/05 10:38:36;;;;;;;9.17;5.60;;;;;;;;;;5058477;28;20751;-69
2022/11/05 10:41:09;;;;;;;9.07;6.23;;;;;;;;;;5041316;28;20222;-69
2022/11/05 10:43:40;;;;;;;12.63;6.43;;;;;;;;;;5043101;28;20175;-69
2022/11/05 10:46:15;;;;;;;10.53;5.93;;;;;;;;;;5063303;28;20194;-69
2022/11/05 10:48:59;;;;;;;9.33;5.93;;;;;;;;;;5061705;28;20198;-69
2022/11/05 10:51:25;;;;;;;10.77;5.30;;;;;;;;;;5041798;28;20635;-69
2022/11/05 10:53:56;;;;;;;10.90;4.93;;;;;;;;;;5057141;28;20182;-69
2022/11/05 10:56:36;;;;;;;7.07;5.10;;;;;;;;;;5056230;28;20543;-69
2022/11/05 10:59:03;;;;;;;10.43;4.67;;;;;;;;;;5046427;28;20197;-70
2022/11/05 11:01:29;;;;;;;7.93;4.77;;;;;;;;;;5060669;28;20174;-69
2022/11/05 11:04:07;;;;;;;7.77;4.63;;;;;;;;;;5035830;28;20205;-69
2022/11/05 11:06:36;;;;;;;10.63;6.17;;;;;;;;;;5035729;28;20241;-70
2022/11/05 11:09:05;;;;;;;7.97;4.70;;;;;;;;;;5054279;28;20202;-70
2022/11/05 11:11:34;;;;;;;14.00;6.87;;;;;;;;;;5054795;28;20174;-69
2022/11/05 11:14:02;;;;;;;8.03;4.87;;;;;;;;;;5036965;28;20178;-70
2022/11/05 11:16:33;;;;;;;8.10;4.87;;;;;;;;;;5053659;28;20238;-69
2022/11/05 11:19:00;;;;;;;7.83;5.10;;;;;;;;;;5035949;28;20206;-69
2022/11/05 11:21:27;;;;;;;9.00;4.77;;;;;;;;;;5054456;28;20697;-69
2022/11/05 11:24:03;;;;;;;8.43;5.30;;;;;;;;;;5036628;28;20201;-69
2022/11/05 11:26:31;;;;;;;10.33;6.07;;;;;;;;;;5035296;28;20222;-69
2022/11/05 11:28:59;;;;;;;8.27;5.10;;;;;;;;;;5053937;28;20670;-69
2022/11/05 11:31:26;;;;;;;11.03;5.13;;;;;;;;;;5053616;28;20713;-69
2022/11/05 11:33:57;;;;;;;8.13;4.83;;;;;;;;;;5035935;28;20182;-69
2022/11/05 11:36:31;;;;;;;7.33;4.67;;;;;;;;;;5053657;28;20206;-68
2022/11/05 11:38:58;;;;;;;13.03;5.37;;;;;;;;;;5035562;28;20331;-69
2022/11/05 11:41:31;;;;;;;9.63;5.73;;;;;;;;;;5053357;28;20182;-69
2022/11/05 11:44:10;;;;;;;8.53;5.87;;;;;;;;;;5035454;28;20527;-70
2022/11/05 11:46:37;;;;;;;11.30;5.50;;;;;;;;;;5053709;28;20202;-69
2022/11/05 11:49:03;;;;;;;7.87;5.33;;;;;;;;;;5035452;28;20675;-69
2022/11/05 11:51:29;;;;;;;12.83;5.40;;;;;;;;;;5053512;28;20175;-69
2022/11/05 11:53:57;;;;;;;7.07;5.30;;;;;;;;;;5054093;28;20182;-69
2022/11/05 11:56:23;;;;;;;7.27;4.90;;;;;;;;;;5035928;28;20241;-68
2022/11/05 11:58:50;;;;;;;7.43;5.23;;;;;;;;;;5054098;28;20178;-68
2022/11/05 12:01:31;;;;;;;10.73;5.37;;;;;;;;;;5055131;28;20257;-68
2022/11/05 12:03:57;;;;;;;9.33;6.30;;;;;;;;;;5065514;28;20178;-69
2022/11/05 12:06:49;;;;;;;8.37;5.60;;;;;;;;;;5052410;28;21251;-68
2022/11/05 12:09:15;;;;;;;11.27;8.03;;;;;;;;;;5046267;28;20241;-69
2022/11/05 12:11:45;;;;;;;9.20;6.03;;;;;;;;;;5039512;28;20205;-69
2022/11/05 12:14:28;;;;;;;13.20;7.77;;;;;;;;;;5035746;28;20171;-69
2022/11/05 12:17:08;;;;;;;10.70;6.23;;;;;;;;;;5054340;28;20674;-68
2022/11/05 12:19:44;;;;;;;13.10;6.33;;;;;;;;;;5053794;28;20178;-66
2022/11/05 12:22:17;;;;;;;9.13;5.90;;;;;;;;;;5035622;28;20178;-68
2022/11/05 12:25:02;;;;;;;9.17;6.27;;;;;;;;;;5035648;28;20197;-67
2022/11/05 12:27:48;;;;;;;9.13;5.43;;;;;;;;;;5052669;28;20228;-68
2022/11/05 12:30:15;;;;;;;9.30;5.93;;;;;;;;;;5053008;28;20545;-66
2022/11/05 12:33:00;;;;;;;10.67;5.80;;;;;;;;;;5035005;28;20181;-67
2022/11/05 12:36:01;;;;;;;9.00;6.40;;;;;;;;;;5035369;28;20649;-66
2022/11/05 12:38:37;;;;;;;10.70;5.50;;;;;;;;;;4996860;28;20202;-69
2022/11/05 12:41:22;;;;;;;12.97;6.03;;;;;;;;;;5038620;28;20182;-68
2022/11/05 12:44:00;;;;;;;9.60;5.97;;;;;;;;;;5038453;28;20189;-68
2022/11/05 12:46:29;;;;;;;9.33;5.80;;;;;;;;;;5038291;28;20242;-69
2022/11/05 12:49:14;;;;;;;9.23;4.97;;;;;;;;;;5056248;28;20603;-66
2022/11/05 12:52:00;;;;;;;10.57;6.40;;;;;;;;;;5056185;28;20171;-68
2022/11/05 12:54:26;;;;;;;7.70;5.50;;;;;;;;;;5056303;28;20178;-69
2022/11/05 12:56:54;;;;;;;7.63;5.47;;;;;;;;;;5056193;28;20197;-68
2022/11/05 12:59:41;;;;;;;7.93;4.63;;;;;;;;;;5056181;28;20228;-68
2022/11/05 13:02:27;;;;;;;8.37;4.90;;;;;;;;;;5024802;28;20677;-69
2022/11/05 13:04:54;;;;;;;8.43;5.50;;;;;;;;;;5056219;28;20162;-69
2022/11/05 13:07:24;;;;;;;10.27;5.47;;;;;;;;;;5037925;28;20325;-68
2022/11/05 13:09:55;;;;;;;7.37;4.80;;;;;;;;;;5056013;28;20293;-68
2022/11/05 13:12:22;;;;;;;6.60;4.70;;;;;;;;;;5055902;28;20159;-69
2022/11/05 13:14:52;;;;;;;10.73;5.53;;;;;;;;;;5090463;22;20234;-71
2022/11/05 13:17:23;;;;;;;8.30;4.80;;;;;;;;;;5073284;28;20545;-72
2022/11/05 13:19:52;;;;;;;11.30;5.07;;;;;;;;;;5073036;28;20181;-71
2022/11/05 13:22:27;;;;;;;7.67;5.23;;;;;;;;;;5074636;28;20235;-72
2022/11/05 13:24:57;;;;;;;10.80;5.27;;;;;;;;;;5072617;28;20208;-70
2022/11/05 13:27:32;;;;;;;9.97;6.33;;;;;;;;;;5074527;28;20185;-70
2022/11/05 13:30:05;;;;;;;11.80;5.97;;;;;;;;;;5074323;28;20223;-70
2022/11/05 13:32:33;;;;;;;8.57;5.00;;;;;;;;;;5074113;28;20182;-71
2022/11/05 13:35:01;;;;;;;11.73;6.03;;;;;;;;;;5074131;28;20201;-70
2022/11/05 13:40:16;;;;;;;8.97;4.70;;;;;;;;;;5074532;28;20185;-70
2022/11/05 13:43:01;;;;;;;7.27;4.93;;;;;;;;;;5074207;28;20177;-70
2022/11/05 13:45:41;;;;;;;7.80;5.20;;;;;;;;;;5072483;28;20293;-70
2022/11/05 13:48:16;;;;;;;7.63;4.60;;;;;;;;;;5072454;28;20684;-70
2022/11/05 13:50:42;;;;;;;8.03;4.37;;;;;;;;;;5073088;28;20208;-70
2022/11/05 13:53:21;;;;;;;6.23;3.80;;;;;;;;;;5074174;28;20258;-70
2022/11/05 13:56:06;;;;;;;6.50;3.90;;;;;;;;;;5073614;28;20632;-70
2022/11/05 13:58:32;;;;;;;7.57;4.07;;;;;;;;;;5073470;28;20223;-70
2022/11/05 14:01:13;;;;;;;9.73;3.90;;;;;;;;;;5073807;28;20576;-70
2022/11/05 14:03:44;;;;;;;5.47;3.80;;;;;;;;;;5073440;28;20180;-71
2022/11/05 14:06:10;;;;;;;5.77;3.77;;;;;;;;;;5073533;28;20202;-71
2022/11/05 14:08:41;;;;;;;8.43;4.00;;;;;;;;;;5072133;28;20201;-70
2022/11/05 14:11:36;;;;;;;10.30;3.70;;;;;;;;;;5073300;28;20180;-71
2022/11/05 14:14:07;;;;;;;7.07;3.67;;;;;;;;;;5019093;28;1026510;-69
2022/11/05 14:16:51;;;;;;;5.87;3.27;;;;;;;;;;5074836;28;20181;-70
2022/11/05 14:19:17;;;;;;;8.67;3.93;;;;;;;;;;5074729;28;20178;-70
2022/11/05 14:21:46;;;;;;;6.23;3.83;;;;;;;;;;5074527;28;20178;-70
2022/11/05 14:24:21;;;;;;;5.83;3.37;;;;;;;;;;5073974;28;20204;-70
2022/11/05 14:26:59;;;;;;;7.33;4.00;;;;;;;;;;5073945;28;20191;-70
2022/11/05 14:29:45;;;;;;;12.33;3.60;;;;;;;;;;5093339;28;20571;-70
2022/11/05 14:32:19;;;;;;;18.57;4.93;;;;;;;;;;5078763;28;20193;-71
2022/11/05 14:34:48;;;;;;;9.80;4.17;;;;;;;;;;5077756;28;20255;-71
2022/11/05 14:37:22;;;;;;;8.63;3.70;;;;;;;;;;5075315;28;20569;-70
2022/11/05 14:39:48;;;;;;;7.50;4.20;;;;;;;;;;5074105;28;20235;-70
2022/11/05 14:42:14;;;;;;;6.33;3.90;;;;;;;;;;5072548;28;20174;-70
2022/11/05 14:44:59;;;;;;;8.40;4.27;;;;;;;;;;5073669;28;20244;-70
2022/11/05 14:47:26;;;;;;;5.03;3.37;;;;;;;;;;5072382;28;20273;-70
2022/11/05 14:49:57;;;;;;;15.63;4.20;;;;;;;;;;5072463;28;20213;-70
2022/11/05 14:52:23;;;;;;;8.13;4.20;;;;;;;;;;5074077;28;20158;-71
2022/11/05 14:54:54;;;;;;;5.50;4.17;;;;;;;;;;5073628;28;20204;-70
2022/11/05 14:57:39;;;;;;;9.60;4.37;;;;;;;;;;5072195;28;20217;-70
2022/11/05 15:00:25;;;;;;;7.17;4.20;;;;;;;;;;5073337;28;20178;-70
2022/11/05 15:03:00;;;;;;;8.50;4.60;;;;;;;;;;5072741;28;20188;-70
2022/11/05 15:05:59;;;;;;;6.87;3.50;;;;;;;;;;5073351;28;20208;-71
2022/11/05 15:08:27;;;;;;;12.07;4.50;;;;;;;;;;5040148;28;20217;-70
2022/11/05 15:10:56;;;;;;;10.83;4.03;;;;;;;;;;5073305;28;20178;-70
2022/11/05 15:13:30;;;;;;;9.30;4.30;;;;;;;;;;5072079;28;20227;-70
2022/11/05 15:15:57;;;;;;;6.80;4.77;;;;;;;;;;5073195;28;20212;-70
2022/11/05 15:18:38;;;;;;;10.17;4.80;;;;;;;;;;5073151;28;20546;-70
2022/11/05 15:21:05;;;;;;;9.90;5.00;;;;;;;;;;5073176;28;20184;-70